sensor_id;sensor_type;location;lat;lon;timestamp;P1;durP1;ratioP1;P2;durP2;ratioP2
5704;SDS011;2877;48.238;11.160;2023-11-19T00:00:34;1.43;;;1.33;;
5704;SDS011;2877;48.238;11.160;2023-11-19T00:03:00;1.60;;;1.50;;
5704;SDS011;2877;48.238;11.160;2023-11-19T00:05:26;1.40;;;1.30;;
5704;SDS011;2877;48.238;11.160;2023-11-19T00:07:52;1.10;;;1.10;;
5704;SDS011;2877;48.238;11.160;2023-11-19T00:10:18;1.83;;;1.10;;
5704;SDS011;2877;48.238;11.160;2023-11-19T00:12:45;1.50;;;1.13;;
5704;SDS011;2877;48.238;11.160;2023-11-19T00:15:11;1.33;;;1.23;;
5704;SDS011;2877;48.238;11.160;2023-11-19T00:17:38;2.60;;;0.90;;
5704;SDS011;2877;48.238;11.160;2023-11-19T00:20:06;1.03;;;1.03;;
5704;SDS011;2877;48.238;11.160;2023-11-19T00:22:32;0.80;;;0.80;;
5704;SDS011;2877;48.238;11.160;2023-11-19T00:24:58;0.90;;;0.90;;
5704;SDS011;2877;48.238;11.160;2023-11-19T00:27:24;0.77;;;0.77;;
5704;SDS011;2877;48.238;11.160;2023-11-19T00:29:50;3.57;;;0.90;;
5704;SDS011;2877;48.238;11.160;2023-11-19T00:32:15;1.13;;;0.97;;
5704;SDS011;2877;48.238;11.160;2023-11-19T00:34:43;0.97;;;0.97;;
5704;SDS011;2877;48.238;11.160;2023-11-19T00:37:13;0.90;;;0.90;;
5704;SDS011;2877;48.238;11.160;2023-11-19T00:39:39;1.57;;;0.83;;
5704;SDS011;2877;48.238;11.160;2023-11-19T00:42:04;0.90;;;0.90;;
5704;SDS011;2877;48.238;11.160;2023-11-19T00:44:30;0.73;;;0.73;;
5704;SDS011;2877;48.238;11.160;2023-11-19T00:46:56;1.13;;;1.13;;
5704;SDS011;2877;48.238;11.160;2023-11-19T00:49:21;1.20;;;1.00;;
5704;SDS011;2877;48.238;11.160;2023-11-19T00:51:47;1.00;;;1.00;;
5704;SDS011;2877;48.238;11.160;2023-11-19T00:54:12;4.50;;;0.90;;
5704;SDS011;2877;48.238;11.160;2023-11-19T00:56:38;1.00;;;0.90;;
5704;SDS011;2877;48.238;11.160;2023-11-19T00:59:05;1.03;;;1.00;;
5704;SDS011;2877;48.238;11.160;2023-11-19T01:01:30;0.80;;;0.80;;
5704;SDS011;2877;48.238;11.160;2023-11-19T01:03:56;0.70;;;0.70;;
5704;SDS011;2877;48.238;11.160;2023-11-19T01:06:30;1.57;;;0.87;;
5704;SDS011;2877;48.238;11.160;2023-11-19T01:08:56;0.70;;;0.70;;
5704;SDS011;2877;48.238;11.160;2023-11-19T01:11:22;0.90;;;0.90;;
5704;SDS011;2877;48.238;11.160;2023-11-19T01:13:48;0.97;;;0.97;;
5704;SDS011;2877;48.238;11.160;2023-11-19T01:16:14;0.93;;;0.93;;
5704;SDS011;2877;48.238;11.160;2023-11-19T01:18:40;0.90;;;0.90;;
5704;SDS011;2877;48.238;11.160;2023-11-19T01:21:06;1.20;;;1.10;;
5704;SDS011;2877;48.238;11.160;2023-11-19T01:23:31;0.80;;;0.80;;
5704;SDS011;2877;48.238;11.160;2023-11-19T01:26:00;1.00;;;1.00;;
5704;SDS011;2877;48.238;11.160;2023-11-19T01:28:25;2.30;;;0.83;;
5704;SDS011;2877;48.238;11.160;2023-11-19T01:30:51;0.90;;;0.90;;
5704;SDS011;2877;48.238;11.160;2023-11-19T01:33:17;2.00;;;1.90;;
5704;SDS011;2877;48.238;11.160;2023-11-19T01:35:42;0.80;;;0.80;;
5704;SDS011;2877;48.238;11.160;2023-11-19T01:38:08;0.70;;;0.70;;
5704;SDS011;2877;48.238;11.160;2023-11-19T01:40:34;0.60;;;0.60;;
5704;SDS011;2877;48.238;11.160;2023-11-19T01:43:01;2.83;;;0.90;;
5704;SDS011;2877;48.238;11.160;2023-11-19T01:45:27;0.83;;;0.80;;
5704;SDS011;2877;48.238;11.160;2023-11-19T01:47:57;0.83;;;0.83;;
5704;SDS011;2877;48.238;11.160;2023-11-19T01:50:25;0.87;;;0.80;;
5704;SDS011;2877;48.238;11.160;2023-11-19T01:52:54;0.80;;;0.80;;
5704;SDS011;2877;48.238;11.160;2023-11-19T01:55:22;2.30;;;0.90;;
5704;SDS011;2877;48.238;11.160;2023-11-19T01:57:50;1.20;;;0.80;;
5704;SDS011;2877;48.238;11.160;2023-11-19T02:00:18;1.27;;;0.97;;
5704;SDS011;2877;48.238;11.160;2023-11-19T02:02:44;1.00;;;1.00;;
5704;SDS011;2877;48.238;11.160;2023-11-19T02:05:11;0.80;;;0.80;;
5704;SDS011;2877;48.238;11.160;2023-11-19T02:07:38;0.90;;;0.90;;
5704;SDS011;2877;48.238;11.160;2023-11-19T02:10:04;0.93;;;0.93;;
5704;SDS011;2877;48.238;11.160;2023-11-19T02:12:31;1.90;;;0.90;;
5704;SDS011;2877;48.238;11.160;2023-11-19T02:15:00;1.47;;;1.00;;
5704;SDS011;2877;48.238;11.160;2023-11-19T02:17:27;1.13;;;0.90;;
5704;SDS011;2877;48.238;11.160;2023-11-19T02:19:57;1.10;;;1.10;;
5704;SDS011;2877;48.238;11.160;2023-11-19T02:22:23;2.30;;;0.90;;
5704;SDS011;2877;48.238;11.160;2023-11-19T02:24:49;1.20;;;1.10;;
5704;SDS011;2877;48.238;11.160;2023-11-19T02:30:12;0.77;;;0.77;;
5704;SDS011;2877;48.238;11.160;2023-11-19T02:32:41;1.03;;;1.03;;
5704;SDS011;2877;48.238;11.160;2023-11-19T02:35:07;1.03;;;1.03;;
5704;SDS011;2877;48.238;11.160;2023-11-19T02:37:34;0.70;;;0.70;;
5704;SDS011;2877;48.238;11.160;2023-11-19T02:39:59;0.70;;;0.70;;
5704;SDS011;2877;48.238;11.160;2023-11-19T02:42:29;1.37;;;0.90;;
5704;SDS011;2877;48.238;11.160;2023-11-19T02:44:55;0.90;;;0.90;;
5704;SDS011;2877;48.238;11.160;2023-11-19T02:47:20;0.80;;;0.80;;
5704;SDS011;2877;48.238;11.160;2023-11-19T02:49:48;1.00;;;1.00;;
5704;SDS011;2877;48.238;11.160;2023-11-19T02:52:14;1.43;;;1.10;;
5704;SDS011;2877;48.238;11.160;2023-11-19T02:54:40;0.80;;;0.77;;
5704;SDS011;2877;48.238;11.160;2023-11-19T02:57:07;0.90;;;0.90;;
5704;SDS011;2877;48.238;11.160;2023-11-19T02:59:37;0.80;;;0.80;;
5704;SDS011;2877;48.238;11.160;2023-11-19T03:02:07;0.90;;;0.90;;
5704;SDS011;2877;48.238;11.160;2023-11-19T03:04:36;1.10;;;1.10;;
5704;SDS011;2877;48.238;11.160;2023-11-19T03:07:04;1.00;;;1.00;;
5704;SDS011;2877;48.238;11.160;2023-11-19T03:09:32;0.80;;;0.80;;
5704;SDS011;2877;48.238;11.160;2023-11-19T03:11:58;2.53;;;0.90;;
5704;SDS011;2877;48.238;11.160;2023-11-19T03:14:24;0.70;;;0.70;;
5704;SDS011;2877;48.238;11.160;2023-11-19T03:16:49;0.90;;;0.90;;
5704;SDS011;2877;48.238;11.160;2023-11-19T03:19:15;0.70;;;0.70;;
5704;SDS011;2877;48.238;11.160;2023-11-19T03:21:41;0.60;;;0.60;;
5704;SDS011;2877;48.238;11.160;2023-11-19T03:24:06;1.87;;;0.80;;
5704;SDS011;2877;48.238;11.160;2023-11-19T03:26:33;0.80;;;0.80;;
5704;SDS011;2877;48.238;11.160;2023-11-19T03:28:59;0.80;;;0.80;;
5704;SDS011;2877;48.238;11.160;2023-11-19T03:31:24;1.20;;;1.10;;
5704;SDS011;2877;48.238;11.160;2023-11-19T03:33:50;0.60;;;0.60;;
5704;SDS011;2877;48.238;11.160;2023-11-19T03:36:16;0.70;;;0.70;;
5704;SDS011;2877;48.238;11.160;2023-11-19T03:38:42;0.60;;;0.60;;
5704;SDS011;2877;48.238;11.160;2023-11-19T03:41:11;0.67;;;0.67;;
5704;SDS011;2877;48.238;11.160;2023-11-19T03:43:38;0.70;;;0.70;;
5704;SDS011;2877;48.238;11.160;2023-11-19T03:46:04;3.83;;;0.73;;
5704;SDS011;2877;48.238;11.160;2023-11-19T03:48:40;0.90;;;0.90;;
5704;SDS011;2877;48.238;11.160;2023-11-19T03:51:05;1.33;;;0.80;;
5704;SDS011;2877;48.238;11.160;2023-11-19T03:53:31;0.70;;;0.70;;
5704;SDS011;2877;48.238;11.160;2023-11-19T03:55:56;0.67;;;0.67;;
5704;SDS011;2877;48.238;11.160;2023-11-19T03:58:22;0.60;;;0.60;;
5704;SDS011;2877;48.238;11.160;2023-11-19T04:00:47;0.80;;;0.80;;
5704;SDS011;2877;48.238;11.160;2023-11-19T04:03:13;0.70;;;0.70;;
5704;SDS011;2877;48.238;11.160;2023-11-19T04:05:38;0.70;;;0.70;;
5704;SDS011;2877;48.238;11.160;2023-11-19T04:08:04;0.60;;;0.60;;
5704;SDS011;2877;48.238;11.160;2023-11-19T04:10:30;0.60;;;0.60;;
5704;SDS011;2877;48.238;11.160;2023-11-19T04:12:55;0.70;;;0.70;;
5704;SDS011;2877;48.238;11.160;2023-11-19T04:15:21;0.67;;;0.67;;
5704;SDS011;2877;48.238;11.160;2023-11-19T04:17:47;1.17;;;1.00;;
5704;SDS011;2877;48.238;11.160;2023-11-19T04:20:13;0.70;;;0.70;;
5704;SDS011;2877;48.238;11.160;2023-11-19T04:22:39;0.80;;;0.80;;
5704;SDS011;2877;48.238;11.160;2023-11-19T04:25:04;0.90;;;0.90;;
5704;SDS011;2877;48.238;11.160;2023-11-19T04:27:30;0.97;;;0.97;;
5704;SDS011;2877;48.238;11.160;2023-11-19T04:29:56;1.40;;;0.60;;
5704;SDS011;2877;48.238;11.160;2023-11-19T04:32:21;0.53;;;0.53;;
5704;SDS011;2877;48.238;11.160;2023-11-19T04:34:47;0.70;;;0.70;;
5704;SDS011;2877;48.238;11.160;2023-11-19T04:37:12;0.73;;;0.73;;
5704;SDS011;2877;48.238;11.160;2023-11-19T04:39:38;1.10;;;1.00;;
5704;SDS011;2877;48.238;11.160;2023-11-19T04:42:04;0.50;;;0.50;;
5704;SDS011;2877;48.238;11.160;2023-11-19T04:44:31;0.83;;;0.83;;
5704;SDS011;2877;48.238;11.160;2023-11-19T04:46:57;0.63;;;0.63;;
5704;SDS011;2877;48.238;11.160;2023-11-19T04:49:22;0.80;;;0.80;;
5704;SDS011;2877;48.238;11.160;2023-11-19T04:51:48;0.60;;;0.60;;
5704;SDS011;2877;48.238;11.160;2023-11-19T04:54:13;1.63;;;0.90;;
5704;SDS011;2877;48.238;11.160;2023-11-19T04:56:39;0.53;;;0.53;;
5704;SDS011;2877;48.238;11.160;2023-11-19T04:59:05;0.63;;;0.63;;
5704;SDS011;2877;48.238;11.160;2023-11-19T05:01:31;0.90;;;0.90;;
5704;SDS011;2877;48.238;11.160;2023-11-19T05:03:58;3.93;;;0.83;;
5704;SDS011;2877;48.238;11.160;2023-11-19T05:06:27;0.97;;;0.73;;
5704;SDS011;2877;48.238;11.160;2023-11-19T05:08:54;0.83;;;0.83;;
5704;SDS011;2877;48.238;11.160;2023-11-19T05:11:20;1.00;;;1.00;;
5704;SDS011;2877;48.238;11.160;2023-11-19T05:13:45;0.90;;;0.90;;
5704;SDS011;2877;48.238;11.160;2023-11-19T05:16:11;0.90;;;0.67;;
5704;SDS011;2877;48.238;11.160;2023-11-19T05:18:40;0.83;;;0.83;;
5704;SDS011;2877;48.238;11.160;2023-11-19T05:21:06;0.80;;;0.80;;
5704;SDS011;2877;48.238;11.160;2023-11-19T05:23:32;1.50;;;0.90;;
5704;SDS011;2877;48.238;11.160;2023-11-19T05:25:59;0.70;;;0.70;;
5704;SDS011;2877;48.238;11.160;2023-11-19T05:28:25;0.70;;;0.70;;
5704;SDS011;2877;48.238;11.160;2023-11-19T05:30:51;0.70;;;0.70;;
5704;SDS011;2877;48.238;11.160;2023-11-19T05:33:16;0.80;;;0.80;;
5704;SDS011;2877;48.238;11.160;2023-11-19T05:35:42;0.90;;;0.90;;
5704;SDS011;2877;48.238;11.160;2023-11-19T05:38:08;0.70;;;0.70;;
5704;SDS011;2877;48.238;11.160;2023-11-19T05:40:34;2.23;;;0.80;;
5704;SDS011;2877;48.238;11.160;2023-11-19T05:43:00;0.90;;;0.90;;
5704;SDS011;2877;48.238;11.160;2023-11-19T05:45:26;0.90;;;0.90;;
5704;SDS011;2877;48.238;11.160;2023-11-19T05:47:51;0.80;;;0.80;;
5704;SDS011;2877;48.238;11.160;2023-11-19T05:50:17;1.03;;;1.03;;
5704;SDS011;2877;48.238;11.160;2023-11-19T05:52:43;0.93;;;0.93;;
5704;SDS011;2877;48.238;11.160;2023-11-19T05:55:09;0.90;;;0.80;;
5704;SDS011;2877;48.238;11.160;2023-11-19T05:57:38;0.70;;;0.70;;
5704;SDS011;2877;48.238;11.160;2023-11-19T06:00:05;0.93;;;0.93;;
5704;SDS011;2877;48.238;11.160;2023-11-19T06:02:34;1.00;;;1.00;;
5704;SDS011;2877;48.238;11.160;2023-11-19T06:05:02;0.83;;;0.83;;
5704;SDS011;2877;48.238;11.160;2023-11-19T06:07:30;2.50;;;0.90;;
5704;SDS011;2877;48.238;11.160;2023-11-19T06:09:56;0.87;;;0.87;;
5704;SDS011;2877;48.238;11.160;2023-11-19T06:12:21;0.90;;;0.90;;
5704;SDS011;2877;48.238;11.160;2023-11-19T06:14:47;1.07;;;1.07;;
5704;SDS011;2877;48.238;11.160;2023-11-19T06:17:12;0.80;;;0.80;;
5704;SDS011;2877;48.238;11.160;2023-11-19T06:19:38;1.20;;;1.10;;
5704;SDS011;2877;48.238;11.160;2023-11-19T06:22:04;1.03;;;1.03;;
5704;SDS011;2877;48.238;11.160;2023-11-19T06:24:30;1.00;;;1.00;;
5704;SDS011;2877;48.238;11.160;2023-11-19T06:26:55;0.87;;;0.80;;
5704;SDS011;2877;48.238;11.160;2023-11-19T06:29:21;1.07;;;1.07;;
5704;SDS011;2877;48.238;11.160;2023-11-19T06:31:46;1.00;;;1.00;;
5704;SDS011;2877;48.238;11.160;2023-11-19T06:34:15;1.33;;;0.93;;
5704;SDS011;2877;48.238;11.160;2023-11-19T06:36:40;1.07;;;1.07;;
5704;SDS011;2877;48.238;11.160;2023-11-19T06:39:08;1.73;;;0.97;;
5704;SDS011;2877;48.238;11.160;2023-11-19T06:41:34;1.50;;;1.00;;
5704;SDS011;2877;48.238;11.160;2023-11-19T06:43:59;1.00;;;1.00;;
5704;SDS011;2877;48.238;11.160;2023-11-19T06:46:25;1.10;;;1.00;;
5704;SDS011;2877;48.238;11.160;2023-11-19T06:48:50;1.03;;;1.03;;
5704;SDS011;2877;48.238;11.160;2023-11-19T06:51:16;1.00;;;1.00;;
5704;SDS011;2877;48.238;11.160;2023-11-19T06:53:44;0.90;;;0.90;;
5704;SDS011;2877;48.238;11.160;2023-11-19T06:56:20;0.70;;;0.70;;
5704;SDS011;2877;48.238;11.160;2023-11-19T06:58:46;0.90;;;0.90;;
5704;SDS011;2877;48.238;11.160;2023-11-19T07:01:13;0.97;;;0.97;;
5704;SDS011;2877;48.238;11.160;2023-11-19T07:03:40;0.80;;;0.80;;
5704;SDS011;2877;48.238;11.160;2023-11-19T07:06:05;1.00;;;1.00;;
5704;SDS011;2877;48.238;11.160;2023-11-19T07:08:31;1.23;;;0.90;;
5704;SDS011;2877;48.238;11.160;2023-11-19T07:10:57;0.70;;;0.70;;
5704;SDS011;2877;48.238;11.160;2023-11-19T07:13:22;0.70;;;0.70;;
5704;SDS011;2877;48.238;11.160;2023-11-19T07:15:48;0.80;;;0.80;;
5704;SDS011;2877;48.238;11.160;2023-11-19T07:18:13;0.77;;;0.77;;
5704;SDS011;2877;48.238;11.160;2023-11-19T07:20:39;1.33;;;0.80;;
5704;SDS011;2877;48.238;11.160;2023-11-19T07:23:06;0.50;;;0.50;;
5704;SDS011;2877;48.238;11.160;2023-11-19T07:25:31;0.60;;;0.60;;
5704;SDS011;2877;48.238;11.160;2023-11-19T07:27:57;0.50;;;0.50;;
5704;SDS011;2877;48.238;11.160;2023-11-19T07:30:22;0.80;;;0.80;;
5704;SDS011;2877;48.238;11.160;2023-11-19T07:32:48;0.50;;;0.50;;
5704;SDS011;2877;48.238;11.160;2023-11-19T07:35:13;0.60;;;0.60;;
5704;SDS011;2877;48.238;11.160;2023-11-19T07:37:40;0.87;;;0.87;;
5704;SDS011;2877;48.238;11.160;2023-11-19T07:40:07;0.60;;;0.60;;
5704;SDS011;2877;48.238;11.160;2023-11-19T07:42:33;0.80;;;0.80;;
5704;SDS011;2877;48.238;11.160;2023-11-19T07:44:59;1.00;;;0.57;;
5704;SDS011;2877;48.238;11.160;2023-11-19T07:47:24;0.50;;;0.50;;
5704;SDS011;2877;48.238;11.160;2023-11-19T07:49:50;0.50;;;0.50;;
5704;SDS011;2877;48.238;11.160;2023-11-19T07:52:16;0.60;;;0.60;;
5704;SDS011;2877;48.238;11.160;2023-11-19T07:54:41;0.90;;;0.63;;
5704;SDS011;2877;48.238;11.160;2023-11-19T07:57:07;0.60;;;0.60;;
5704;SDS011;2877;48.238;11.160;2023-11-19T07:59:32;0.70;;;0.70;;
5704;SDS011;2877;48.238;11.160;2023-11-19T08:01:58;0.53;;;0.53;;
5704;SDS011;2877;48.238;11.160;2023-11-19T08:04:23;0.60;;;0.60;;
5704;SDS011;2877;48.238;11.160;2023-11-19T08:06:49;0.70;;;0.70;;
5704;SDS011;2877;48.238;11.160;2023-11-19T08:09:14;0.50;;;0.50;;
5704;SDS011;2877;48.238;11.160;2023-11-19T08:11:40;0.60;;;0.60;;
5704;SDS011;2877;48.238;11.160;2023-11-19T08:14:06;0.50;;;0.50;;
5704;SDS011;2877;48.238;11.160;2023-11-19T08:16:33;0.80;;;0.80;;
5704;SDS011;2877;48.238;11.160;2023-11-19T08:18:59;1.07;;;0.70;;
5704;SDS011;2877;48.238;11.160;2023-11-19T08:21:24;0.70;;;0.70;;
5704;SDS011;2877;48.238;11.160;2023-11-19T08:23:52;0.70;;;0.70;;
5704;SDS011;2877;48.238;11.160;2023-11-19T08:26:17;0.40;;;0.40;;
5704;SDS011;2877;48.238;11.160;2023-11-19T08:28:43;0.53;;;0.53;;
5704;SDS011;2877;48.238;11.160;2023-11-19T08:31:08;0.70;;;0.70;;
5704;SDS011;2877;48.238;11.160;2023-11-19T08:33:34;0.83;;;0.60;;
5704;SDS011;2877;48.238;11.160;2023-11-19T08:36:00;0.50;;;0.50;;
5704;SDS011;2877;48.238;11.160;2023-11-19T08:38:26;0.70;;;0.70;;
5704;SDS011;2877;48.238;11.160;2023-11-19T08:40:51;0.77;;;0.63;;
5704;SDS011;2877;48.238;11.160;2023-11-19T08:43:17;0.60;;;0.60;;
5704;SDS011;2877;48.238;11.160;2023-11-19T08:45:42;0.50;;;0.50;;
5704;SDS011;2877;48.238;11.160;2023-11-19T08:48:08;1.23;;;0.67;;
5704;SDS011;2877;48.238;11.160;2023-11-19T08:50:34;1.80;;;0.70;;
5704;SDS011;2877;48.238;11.160;2023-11-19T08:52:59;0.53;;;0.53;;
5704;SDS011;2877;48.238;11.160;2023-11-19T08:55:25;0.60;;;0.50;;
5704;SDS011;2877;48.238;11.160;2023-11-19T08:57:51;1.50;;;0.97;;
5704;SDS011;2877;48.238;11.160;2023-11-19T09:00:17;0.80;;;0.80;;
5704;SDS011;2877;48.238;11.160;2023-11-19T09:02:43;0.50;;;0.50;;
5704;SDS011;2877;48.238;11.160;2023-11-19T09:05:08;0.60;;;0.60;;
5704;SDS011;2877;48.238;11.160;2023-11-19T09:07:34;0.50;;;0.50;;
5704;SDS011;2877;48.238;11.160;2023-11-19T09:09:59;0.60;;;0.60;;
5704;SDS011;2877;48.238;11.160;2023-11-19T09:12:25;0.57;;;0.57;;
5704;SDS011;2877;48.238;11.160;2023-11-19T09:14:50;0.80;;;0.80;;
5704;SDS011;2877;48.238;11.160;2023-11-19T09:17:16;0.60;;;0.60;;
5704;SDS011;2877;48.238;11.160;2023-11-19T09:19:43;0.70;;;0.57;;
5704;SDS011;2877;48.238;11.160;2023-11-19T09:22:08;0.50;;;0.50;;
5704;SDS011;2877;48.238;11.160;2023-11-19T09:24:34;0.60;;;0.60;;
5704;SDS011;2877;48.238;11.160;2023-11-19T09:26:59;0.63;;;0.63;;
5704;SDS011;2877;48.238;11.160;2023-11-19T09:29:25;0.70;;;0.70;;
5704;SDS011;2877;48.238;11.160;2023-11-19T09:31:50;0.70;;;0.70;;
5704;SDS011;2877;48.238;11.160;2023-11-19T09:34:16;0.53;;;0.53;;
5704;SDS011;2877;48.238;11.160;2023-11-19T09:36:42;0.60;;;0.60;;
5704;SDS011;2877;48.238;11.160;2023-11-19T09:39:09;0.87;;;0.70;;
5704;SDS011;2877;48.238;11.160;2023-11-19T09:41:39;0.70;;;0.70;;
5704;SDS011;2877;48.238;11.160;2023-11-19T09:44:06;0.83;;;0.70;;
5704;SDS011;2877;48.238;11.160;2023-11-19T09:46:31;0.50;;;0.50;;
5704;SDS011;2877;48.238;11.160;2023-11-19T09:48:57;0.77;;;0.70;;
5704;SDS011;2877;48.238;11.160;2023-11-19T09:51:24;1.33;;;0.70;;
5704;SDS011;2877;48.238;11.160;2023-11-19T09:53:50;0.60;;;0.60;;
5704;SDS011;2877;48.238;11.160;2023-11-19T09:56:16;1.00;;;0.60;;
5704;SDS011;2877;48.238;11.160;2023-11-19T09:58:42;1.00;;;0.60;;
5704;SDS011;2877;48.238;11.160;2023-11-19T10:01:07;1.37;;;0.60;;
5704;SDS011;2877;48.238;11.160;2023-11-19T10:03:36;0.57;;;0.57;;
5704;SDS011;2877;48.238;11.160;2023-11-19T10:06:08;0.50;;;0.50;;
5704;SDS011;2877;48.238;11.160;2023-11-19T10:08:34;0.57;;;0.57;;
5704;SDS011;2877;48.238;11.160;2023-11-19T10:11:04;0.70;;;0.67;;
5704;SDS011;2877;48.238;11.160;2023-11-19T10:13:33;0.50;;;0.50;;
5704;SDS011;2877;48.238;11.160;2023-11-19T10:16:03;0.90;;;0.70;;
5704;SDS011;2877;48.238;11.160;2023-11-19T10:18:32;0.57;;;0.57;;
5704;SDS011;2877;48.238;11.160;2023-11-19T10:21:02;0.97;;;0.70;;
5704;SDS011;2877;48.238;11.160;2023-11-19T10:23:31;0.50;;;0.50;;
5704;SDS011;2877;48.238;11.160;2023-11-19T10:26:22;0.57;;;0.57;;
5704;SDS011;2877;48.238;11.160;2023-11-19T10:28:48;1.00;;;0.60;;
5704;SDS011;2877;48.238;11.160;2023-11-19T10:31:17;2.10;;;0.50;;
5704;SDS011;2877;48.238;11.160;2023-11-19T10:33:44;2.13;;;0.60;;
5704;SDS011;2877;48.238;11.160;2023-11-19T10:36:14;0.50;;;0.50;;
5704;SDS011;2877;48.238;11.160;2023-11-19T10:38:40;0.60;;;0.60;;
5704;SDS011;2877;48.238;11.160;2023-11-19T10:41:06;1.77;;;0.60;;
5704;SDS011;2877;48.238;11.160;2023-11-19T10:43:41;0.50;;;0.50;;
5704;SDS011;2877;48.238;11.160;2023-11-19T10:46:11;0.60;;;0.50;;
5704;SDS011;2877;48.238;11.160;2023-11-19T10:48:38;0.50;;;0.50;;
5704;SDS011;2877;48.238;11.160;2023-11-19T10:51:05;0.50;;;0.50;;
5704;SDS011;2877;48.238;11.160;2023-11-19T10:53:36;0.50;;;0.50;;
5704;SDS011;2877;48.238;11.160;2023-11-19T10:56:04;0.93;;;0.60;;
5704;SDS011;2877;48.238;11.160;2023-11-19T10:58:33;0.60;;;0.60;;
5704;SDS011;2877;48.238;11.160;2023-11-19T11:01:03;0.30;;;0.30;;
5704;SDS011;2877;48.238;11.160;2023-11-19T11:03:39;0.80;;;0.40;;
5704;SDS011;2877;48.238;11.160;2023-11-19T11:06:05;1.40;;;1.30;;
5704;SDS011;2877;48.238;11.160;2023-11-19T11:08:31;3.13;;;0.60;;
5704;SDS011;2877;48.238;11.160;2023-11-19T11:11:01;0.53;;;0.50;;
5704;SDS011;2877;48.238;11.160;2023-11-19T11:13:29;0.40;;;0.40;;
5704;SDS011;2877;48.238;11.160;2023-11-19T11:15:56;0.50;;;0.50;;
5704;SDS011;2877;48.238;11.160;2023-11-19T11:18:25;0.50;;;0.50;;
5704;SDS011;2877;48.238;11.160;2023-11-19T11:21:13;0.40;;;0.40;;
5704;SDS011;2877;48.238;11.160;2023-11-19T11:26:57;0.40;;;0.40;;
5704;SDS011;2877;48.238;11.160;2023-11-19T11:32:39;0.40;;;0.40;;
5704;SDS011;2877;48.238;11.160;2023-11-19T11:37:44;0.50;;;0.50;;
5704;SDS011;2877;48.238;11.160;2023-11-19T11:40:15;0.50;;;0.50;;
5704;SDS011;2877;48.238;11.160;2023-11-19T11:42:41;0.40;;;0.40;;
5704;SDS011;2877;48.238;11.160;2023-11-19T11:45:07;0.50;;;0.50;;
5704;SDS011;2877;48.238;11.160;2023-11-19T11:50:10;0.50;;;0.50;;
5704;SDS011;2877;48.238;11.160;2023-11-19T11:55:27;0.50;;;0.50;;
5704;SDS011;2877;48.238;11.160;2023-11-19T11:57:55;0.40;;;0.40;;
5704;SDS011;2877;48.238;11.160;2023-11-19T12:02:56;1.13;;;0.50;;
5704;SDS011;2877;48.238;11.160;2023-11-19T12:05:22;0.53;;;0.53;;
5704;SDS011;2877;48.238;11.160;2023-11-19T12:08:24;0.60;;;0.60;;
5704;SDS011;2877;48.238;11.160;2023-11-19T12:10:46;0.70;;;0.70;;
5704;SDS011;2877;48.238;11.160;2023-11-19T12:13:13;0.50;;;0.50;;
5704;SDS011;2877;48.238;11.160;2023-11-19T12:20:49;0.50;;;0.50;;
5704;SDS011;2877;48.238;11.160;2023-11-19T12:23:15;1.50;;;1.40;;
5704;SDS011;2877;48.238;11.160;2023-11-19T12:25:40;0.50;;;0.50;;
5704;SDS011;2877;48.238;11.160;2023-11-19T12:28:11;0.60;;;0.60;;
5704;SDS011;2877;48.238;11.160;2023-11-19T12:30:38;0.50;;;0.50;;
5704;SDS011;2877;48.238;11.160;2023-11-19T12:33:10;0.50;;;0.50;;
5704;SDS011;2877;48.238;11.160;2023-11-19T12:35:39;0.50;;;0.50;;
5704;SDS011;2877;48.238;11.160;2023-11-19T12:38:07;0.40;;;0.40;;
5704;SDS011;2877;48.238;11.160;2023-11-19T12:40:32;0.60;;;0.57;;
5704;SDS011;2877;48.238;11.160;2023-11-19T12:42:58;1.43;;;0.50;;
5704;SDS011;2877;48.238;11.160;2023-11-19T12:45:25;0.83;;;0.43;;
5704;SDS011;2877;48.238;11.160;2023-11-19T12:48:06;0.60;;;0.60;;
5704;SDS011;2877;48.238;11.160;2023-11-19T12:50:51;0.57;;;0.50;;
5704;SDS011;2877;48.238;11.160;2023-11-19T12:53:18;0.50;;;0.50;;
5704;SDS011;2877;48.238;11.160;2023-11-19T12:55:44;0.93;;;0.60;;
5704;SDS011;2877;48.238;11.160;2023-11-19T12:58:09;1.17;;;0.77;;
5704;SDS011;2877;48.238;11.160;2023-11-19T13:00:35;0.40;;;0.40;;
5704;SDS011;2877;48.238;11.160;2023-11-19T13:03:01;0.60;;;0.60;;
5704;SDS011;2877;48.238;11.160;2023-11-19T13:05:28;1.13;;;0.60;;
5704;SDS011;2877;48.238;11.160;2023-11-19T13:08:07;1.10;;;0.60;;
5704;SDS011;2877;48.238;11.160;2023-11-19T13:10:52;0.60;;;0.60;;
5704;SDS011;2877;48.238;11.160;2023-11-19T13:13:19;0.60;;;0.60;;
5704;SDS011;2877;48.238;11.160;2023-11-19T13:15:44;0.60;;;0.60;;
5704;SDS011;2877;48.238;11.160;2023-11-19T13:18:11;0.47;;;0.47;;
5704;SDS011;2877;48.238;11.160;2023-11-19T13:20:37;1.07;;;0.60;;
5704;SDS011;2877;48.238;11.160;2023-11-19T13:23:03;0.50;;;0.50;;
5704;SDS011;2877;48.238;11.160;2023-11-19T13:25:30;0.40;;;0.40;;
5704;SDS011;2877;48.238;11.160;2023-11-19T13:27:57;0.63;;;0.63;;
5704;SDS011;2877;48.238;11.160;2023-11-19T13:30:23;0.50;;;0.50;;
5704;SDS011;2877;48.238;11.160;2023-11-19T13:32:49;1.53;;;0.40;;
5704;SDS011;2877;48.238;11.160;2023-11-19T13:35:15;0.43;;;0.43;;
5704;SDS011;2877;48.238;11.160;2023-11-19T13:37:42;0.50;;;0.50;;
5704;SDS011;2877;48.238;11.160;2023-11-19T13:40:08;0.70;;;0.47;;
5704;SDS011;2877;48.238;11.160;2023-11-19T13:42:39;0.60;;;0.60;;
5704;SDS011;2877;48.238;11.160;2023-11-19T13:45:14;0.40;;;0.40;;
5704;SDS011;2877;48.238;11.160;2023-11-19T13:47:41;0.50;;;0.50;;
5704;SDS011;2877;48.238;11.160;2023-11-19T13:50:12;0.40;;;0.40;;
5704;SDS011;2877;48.238;11.160;2023-11-19T13:52:42;1.07;;;0.57;;
5704;SDS011;2877;48.238;11.160;2023-11-19T13:55:12;0.50;;;0.50;;
5704;SDS011;2877;48.238;11.160;2023-11-19T13:57:38;0.50;;;0.50;;
5704;SDS011;2877;48.238;11.160;2023-11-19T14:00:05;0.40;;;0.40;;
5704;SDS011;2877;48.238;11.160;2023-11-19T14:02:36;0.50;;;0.50;;
5704;SDS011;2877;48.238;11.160;2023-11-19T14:05:01;0.50;;;0.50;;
5704;SDS011;2877;48.238;11.160;2023-11-19T14:07:28;0.57;;;0.40;;
5704;SDS011;2877;48.238;11.160;2023-11-19T14:09:54;1.40;;;0.60;;
5704;SDS011;2877;48.238;11.160;2023-11-19T14:12:19;0.40;;;0.40;;
5704;SDS011;2877;48.238;11.160;2023-11-19T14:14:45;1.47;;;0.70;;
5704;SDS011;2877;48.238;11.160;2023-11-19T14:17:11;0.50;;;0.50;;
5704;SDS011;2877;48.238;11.160;2023-11-19T14:19:36;1.80;;;0.60;;
5704;SDS011;2877;48.238;11.160;2023-11-19T14:22:04;1.00;;;0.50;;
5704;SDS011;2877;48.238;11.160;2023-11-19T14:24:30;0.50;;;0.50;;
5704;SDS011;2877;48.238;11.160;2023-11-19T14:26:55;0.50;;;0.50;;
5704;SDS011;2877;48.238;11.160;2023-11-19T14:29:23;0.50;;;0.50;;
5704;SDS011;2877;48.238;11.160;2023-11-19T14:31:51;0.40;;;0.40;;
5704;SDS011;2877;48.238;11.160;2023-11-19T14:34:17;0.57;;;0.50;;
5704;SDS011;2877;48.238;11.160;2023-11-19T14:36:44;0.60;;;0.40;;
5704;SDS011;2877;48.238;11.160;2023-11-19T14:39:10;0.60;;;0.60;;
5704;SDS011;2877;48.238;11.160;2023-11-19T14:41:35;0.47;;;0.47;;
5704;SDS011;2877;48.238;11.160;2023-11-19T14:44:01;0.70;;;0.70;;
5704;SDS011;2877;48.238;11.160;2023-11-19T14:46:28;0.50;;;0.50;;
5704;SDS011;2877;48.238;11.160;2023-11-19T14:48:54;0.70;;;0.60;;
5704;SDS011;2877;48.238;11.160;2023-11-19T14:51:19;2.10;;;0.50;;
5704;SDS011;2877;48.238;11.160;2023-11-19T14:53:45;0.60;;;0.60;;
5704;SDS011;2877;48.238;11.160;2023-11-19T14:56:11;0.60;;;0.60;;
5704;SDS011;2877;48.238;11.160;2023-11-19T14:58:40;0.80;;;0.80;;
5704;SDS011;2877;48.238;11.160;2023-11-19T15:01:05;0.70;;;0.70;;
5704;SDS011;2877;48.238;11.160;2023-11-19T15:03:32;1.13;;;0.93;;
5704;SDS011;2877;48.238;11.160;2023-11-19T15:05:58;0.60;;;0.60;;
5704;SDS011;2877;48.238;11.160;2023-11-19T15:08:24;1.60;;;0.63;;
5704;SDS011;2877;48.238;11.160;2023-11-19T15:10:50;0.60;;;0.60;;
5704;SDS011;2877;48.238;11.160;2023-11-19T15:13:15;1.57;;;0.67;;
5704;SDS011;2877;48.238;11.160;2023-11-19T15:15:41;0.97;;;0.60;;
5704;SDS011;2877;48.238;11.160;2023-11-19T15:18:07;0.60;;;0.60;;
5704;SDS011;2877;48.238;11.160;2023-11-19T15:20:32;3.07;;;0.73;;
5704;SDS011;2877;48.238;11.160;2023-11-19T15:22:58;2.10;;;0.60;;